createdAt,value
2023-04-12T00:01:08.777Z,8.70
2023-04-12T00:03:35.897Z,9.40
2023-04-12T00:06:03.448Z,11.40
2023-04-12T00:08:33.137Z,8.60
2023-04-12T00:11:02.153Z,8.60
2023-04-12T00:13:30.661Z,8.60
2023-04-12T00:15:57.552Z,9.60
2023-04-12T00:18:25.365Z,8.60
2023-04-12T00:20:53.236Z,8.50
2023-04-12T00:23:20.649Z,8.60
2023-04-12T00:25:48.024Z,8.50
2023-04-12T00:28:15.966Z,10.40
2023-04-12T00:30:43.211Z,8.60
2023-04-12T00:33:10.141Z,8.50
2023-04-12T00:35:37.142Z,8.50
2023-04-12T00:38:06.296Z,8.50
2023-04-12T00:40:33.348Z,8.50
2023-04-12T00:43:01.012Z,10.40
2023-04-12T00:45:28.030Z,8.90
2023-04-12T00:47:56.522Z,10.70
2023-04-12T00:50:24.071Z,11.20
2023-04-12T00:52:52.839Z,8.50
2023-04-12T00:55:19.938Z,8.50
2023-04-12T00:57:46.928Z,8.40
2023-04-12T01:00:14.250Z,8.40
2023-04-12T01:02:47.862Z,8.30
2023-04-12T01:05:22.528Z,10.40
2023-04-12T01:08:14.995Z,10.60
2023-04-12T01:11:06.322Z,11.60
2023-04-12T01:13:47.408Z,8.20
2023-04-12T01:16:40.710Z,8.20
2023-04-12T01:19:35.995Z,8.10
2023-04-12T01:22:38.648Z,8.10
2023-04-12T01:25:44.707Z,8.00
2023-04-12T01:28:23.084Z,8.00
2023-04-12T01:30:54.134Z,7.90
2023-04-12T01:33:22.250Z,7.90
2023-04-12T01:35:51.724Z,9.60
2023-04-12T01:38:19.228Z,7.90
2023-04-12T01:40:46.206Z,7.90
2023-04-12T01:43:15.847Z,9.20
2023-04-12T01:45:42.841Z,9.20
2023-04-12T01:48:12.008Z,9.10
2023-04-12T01:51:00.730Z,8.00
2023-04-12T01:53:48.104Z,8.10
2023-04-12T01:56:18.290Z,8.00
2023-04-12T01:58:47.818Z,8.10
2023-04-12T02:01:16.438Z,10.80
2023-04-12T02:03:45.118Z,8.10
2023-04-12T02:06:12.633Z,8.10
2023-04-12T02:08:39.590Z,9.60
2023-04-12T02:11:11.453Z,8.10
2023-04-12T02:13:38.476Z,8.10
2023-04-12T02:16:08.005Z,8.10
2023-04-12T02:18:37.545Z,8.00
2023-04-12T02:21:04.652Z,8.00
2023-04-12T02:23:31.681Z,8.00
2023-04-12T02:25:58.628Z,8.00
2023-04-12T02:28:25.539Z,8.10
2023-04-12T02:30:53.949Z,8.00
2023-04-12T02:33:28.263Z,7.90
2023-04-12T02:35:57.288Z,9.40
2023-04-12T02:38:24.393Z,7.90
2023-04-12T02:40:51.485Z,7.90
2023-04-12T02:43:18.364Z,7.90
2023-04-12T02:45:46.925Z,7.90
2023-04-12T02:48:13.846Z,7.80
2023-04-12T02:50:40.998Z,7.90
2023-04-12T02:53:07.882Z,7.90
2023-04-12T02:55:36.751Z,7.90
2023-04-12T02:58:03.657Z,7.80
2023-04-12T03:00:30.594Z,10.70
2023-04-12T03:02:58.978Z,10.20
2023-04-12T03:05:27.344Z,7.70
2023-04-12T03:07:54.496Z,10.40
2023-04-12T03:10:21.501Z,9.70
2023-04-12T03:12:48.342Z,7.70
2023-04-12T03:15:15.251Z,9.90
2023-04-12T03:17:42.939Z,7.60
2023-04-12T03:20:10.205Z,7.60
2023-04-12T03:22:38.239Z,7.60
2023-04-12T03:25:05.976Z,7.70
2023-04-12T03:27:33.163Z,7.70
2023-04-12T03:30:00.386Z,8.70
2023-04-12T03:32:27.397Z,9.90
2023-04-12T03:34:55.373Z,11.20
2023-04-12T03:37:22.376Z,9.30
2023-04-12T03:39:49.343Z,9.90
2023-04-12T03:42:31.590Z,7.70
2023-04-12T03:44:59.710Z,7.70
2023-04-12T03:47:26.703Z,9.50
2023-04-12T03:50:10.165Z,7.70
2023-04-12T03:52:38.590Z,7.60
2023-04-12T03:55:07.494Z,7.60
2023-04-12T03:57:35.293Z,7.50
2023-04-12T04:00:02.698Z,7.50
2023-04-12T04:02:30.105Z,7.50
2023-04-12T04:04:57.366Z,7.40
2023-04-12T04:07:24.308Z,7.40
2023-04-12T04:09:51.238Z,7.40
2023-04-12T04:12:18.144Z,7.30
2023-04-12T04:14:45.372Z,7.30
2023-04-12T04:17:12.360Z,9.70
2023-04-12T04:19:39.541Z,7.20
2023-04-12T04:22:06.997Z,7.20
2023-04-12T04:24:34.216Z,7.20
2023-04-12T04:27:01.149Z,7.20
2023-04-12T04:29:29.163Z,7.10
2023-04-12T04:31:57.443Z,7.00
2023-04-12T04:34:25.478Z,7.00
2023-04-12T04:36:52.767Z,6.90
2023-04-12T04:39:20.011Z,6.90
2023-04-12T04:41:47.051Z,6.80
2023-04-12T04:44:14.384Z,9.50
2023-04-12T04:46:41.448Z,6.80
2023-04-12T04:49:08.377Z,6.70
2023-04-12T04:51:36.629Z,6.60
2023-04-12T04:54:03.653Z,7.50
2023-04-12T04:56:30.949Z,6.50
2023-04-12T04:58:58.068Z,6.50
2023-04-12T05:01:28.634Z,6.50
2023-04-12T05:03:56.345Z,6.50
2023-04-12T05:06:24.089Z,7.60
2023-04-12T05:08:52.508Z,6.50
2023-04-12T05:11:20.386Z,6.50
2023-04-12T05:13:47.700Z,9.30
2023-04-12T05:16:14.752Z,6.60
2023-04-12T05:18:41.663Z,6.60
2023-04-12T05:21:08.649Z,6.60
2023-04-12T05:23:44.672Z,8.60
2023-04-12T05:26:11.709Z,6.70
2023-04-12T05:28:38.689Z,6.80
2023-04-12T05:31:06.224Z,6.80
2023-04-12T05:33:34.622Z,6.90
2023-04-12T05:36:01.666Z,7.00
2023-04-12T05:38:28.871Z,8.40
2023-04-12T05:40:55.820Z,7.10
2023-04-12T05:43:22.903Z,7.20
2023-04-12T05:45:51.347Z,7.20
2023-04-12T05:48:19.199Z,10.20
2023-04-12T05:50:53.661Z,7.40
2023-04-12T05:53:22.724Z,7.50
2023-04-12T05:55:49.680Z,7.60
2023-04-12T05:58:16.738Z,7.70
2023-04-12T06:00:45.197Z,7.90
2023-04-12T06:03:12.816Z,7.80
2023-04-12T06:05:40.771Z,8.50
2023-04-12T06:08:17.325Z,9.40
2023-04-12T06:10:45.478Z,6.10
2023-04-12T06:13:12.475Z,8.30
2023-04-12T06:15:39.489Z,11.10
2023-04-12T06:18:09.572Z,10.30
2023-04-12T06:20:40.790Z,10.70
2023-04-12T06:23:07.993Z,10.90
2023-04-12T06:25:34.974Z,9.70
2023-04-12T06:28:01.896Z,8.30
2023-04-12T06:30:28.837Z,10.20
2023-04-12T06:32:56.569Z,10.70
2023-04-12T06:35:23.492Z,8.40
2023-04-12T06:37:50.423Z,9.30
2023-04-12T06:40:26.640Z,8.40
2023-04-12T06:43:00.346Z,8.40
2023-04-12T06:45:31.146Z,8.60
2023-04-12T06:47:58.507Z,11.30
2023-04-12T06:50:26.840Z,11.30
2023-04-12T06:52:53.864Z,8.50
2023-04-12T06:55:21.468Z,10.00
2023-04-12T06:57:51.899Z,9.10
2023-04-12T07:00:19.016Z,8.70
2023-04-12T07:02:46.690Z,8.70
2023-04-12T07:05:14.671Z,8.70
2023-04-12T07:07:41.633Z,8.80
2023-04-12T07:10:08.970Z,10.10
2023-04-12T07:12:36.445Z,8.80
2023-04-12T07:15:03.801Z,10.10
2023-04-12T07:17:30.743Z,8.90
2023-04-12T07:19:57.682Z,8.90
2023-04-12T07:22:24.633Z,9.00
2023-04-12T07:24:52.214Z,9.00
2023-04-12T07:27:19.540Z,9.00
2023-04-12T07:29:47.354Z,11.90
2023-04-12T07:32:14.452Z,9.10
2023-04-12T07:34:41.846Z,11.10
2023-04-12T07:37:08.882Z,11.70
2023-04-12T07:39:37.491Z,9.90
2023-04-12T07:42:04.609Z,9.30
2023-04-12T07:44:31.877Z,9.40
2023-04-12T07:46:58.776Z,12.10
2023-04-12T07:49:26.084Z,10.60
2023-04-12T07:51:53.017Z,9.50
2023-04-12T07:54:21.179Z,11.50
2023-04-12T07:57:04.153Z,9.90
2023-04-12T07:59:31.926Z,9.60
2023-04-12T08:01:58.908Z,12.10
2023-04-12T08:04:28.583Z,11.70
2023-04-12T08:06:56.100Z,10.20
2023-04-12T08:09:24.490Z,9.90
2023-04-12T08:11:51.584Z,11.90
2023-04-12T08:14:18.498Z,11.70
2023-04-12T08:16:45.502Z,10.80
2023-04-12T08:19:12.457Z,10.20
2023-04-12T08:21:39.517Z,12.40
2023-04-12T08:24:06.957Z,12.20
2023-04-12T08:26:33.897Z,10.50
2023-04-12T08:29:01.005Z,10.70
2023-04-12T08:31:28.929Z,11.00
2023-04-12T08:33:56.716Z,12.80
2023-04-12T08:36:23.912Z,12.30
2023-04-12T08:38:52.618Z,11.10
2023-04-12T08:41:20.277Z,11.90
2023-04-12T08:43:47.834Z,12.60
2023-04-12T08:46:16.198Z,11.30
2023-04-12T08:48:49.184Z,12.80
2023-04-12T08:51:19.389Z,12.00
2023-04-12T08:53:46.402Z,12.60
2023-04-12T08:56:17.331Z,12.10
2023-04-12T08:58:50.803Z,13.00
2023-04-12T09:01:20.853Z,12.70
2023-04-12T09:03:48.446Z,12.90
2023-04-12T09:06:15.748Z,12.90
2023-04-12T09:08:56.646Z,12.10
2023-04-12T09:11:28.804Z,12.70
2023-04-12T09:13:58.742Z,13.80
2023-04-12T09:16:42.715Z,13.00
2023-04-12T09:19:10.097Z,12.30
2023-04-12T09:21:37.878Z,12.50
2023-04-12T09:24:12.409Z,12.80
2023-04-12T09:26:41.236Z,12.40
2023-04-12T09:29:25.089Z,12.50
2023-04-12T09:32:10.611Z,12.70
2023-04-12T09:34:38.774Z,12.70
2023-04-12T09:37:16.777Z,13.90
2023-04-12T09:39:44.193Z,13.00
2023-04-12T09:42:30.000Z,13.10
2023-04-12T09:45:02.867Z,13.20
2023-04-12T09:47:40.872Z,13.40
2023-04-12T09:50:09.841Z,13.50
2023-04-12T09:52:38.945Z,13.70
2023-04-12T09:55:11.172Z,14.20
2023-04-12T09:57:43.753Z,14.10
2023-04-12T10:00:20.240Z,14.40
2023-04-12T10:02:53.566Z,14.60
2023-04-12T10:05:25.169Z,15.00
2023-04-12T10:07:53.292Z,15.30
2023-04-12T10:10:21.228Z,16.00
2023-04-12T10:12:49.708Z,15.50
2023-04-12T10:15:18.301Z,16.40
2023-04-12T10:17:51.890Z,16.00
2023-04-12T10:20:21.108Z,16.10
2023-04-12T10:22:51.377Z,16.30
2023-04-12T10:25:21.870Z,16.50
2023-04-12T10:27:49.671Z,16.80
2023-04-12T10:30:27.345Z,16.80
2023-04-12T10:33:03.530Z,16.90
2023-04-12T10:35:48.884Z,17.10
2023-04-12T10:38:16.686Z,17.30
2023-04-12T10:41:17.207Z,17.60
2023-04-12T10:43:49.567Z,17.80
2023-04-12T10:46:37.544Z,18.10
2023-04-12T10:49:14.780Z,18.30
2023-04-12T10:52:02.693Z,18.30
2023-04-12T10:54:30.142Z,18.50
2023-04-12T10:56:57.630Z,18.70
2023-04-12T10:59:31.397Z,18.90
2023-04-12T11:02:11.558Z,19.10
2023-04-12T11:04:39.170Z,19.30
2023-04-12T11:07:11.654Z,19.50
2023-04-12T11:09:42.591Z,19.70
2023-04-12T11:12:16.700Z,19.70
2023-04-12T11:14:52.951Z,19.90
2023-04-12T11:17:22.753Z,20.20
2023-04-12T11:19:56.878Z,20.50
2023-04-12T11:22:32.629Z,20.70
2023-04-12T11:25:02.265Z,20.80
2023-04-12T11:27:31.788Z,20.80
2023-04-12T11:30:00.791Z,21.10
2023-04-12T11:32:30.196Z,21.40
2023-04-12T11:34:58.765Z,21.70
2023-04-12T11:37:27.303Z,22.00
2023-04-12T11:39:57.515Z,22.20
2023-04-12T11:42:26.477Z,22.50
2023-04-12T11:44:59.233Z,22.60
2023-04-12T11:47:28.898Z,22.70
2023-04-12T11:49:58.880Z,22.90
2023-04-12T11:52:33.743Z,23.10
2023-04-12T11:55:08.695Z,23.40
2023-04-12T11:57:35.994Z,23.60
2023-04-12T12:00:06.547Z,23.90
2023-04-12T12:02:41.045Z,23.90
2023-04-12T12:05:13.468Z,24.20
2023-04-12T12:07:40.975Z,24.30
2023-04-12T12:10:09.226Z,24.20
2023-04-12T12:12:36.250Z,24.10
2023-04-12T12:15:03.165Z,24.10
2023-04-12T12:17:30.156Z,23.70
2023-04-12T12:20:04.527Z,23.70
2023-04-12T12:22:31.802Z,23.80
2023-04-12T12:25:00.687Z,23.70
2023-04-12T12:27:31.030Z,23.50
2023-04-12T12:30:01.781Z,23.50
2023-04-12T12:32:35.602Z,23.60
2023-04-12T12:35:03.797Z,23.60
2023-04-12T12:37:31.293Z,23.30
2023-04-12T12:40:16.691Z,23.20
2023-04-12T12:42:55.463Z,23.20
2023-04-12T12:45:26.297Z,23.10
2023-04-12T12:48:04.062Z,23.00
2023-04-12T12:50:36.209Z,22.90
2023-04-12T12:53:06.420Z,22.50
2023-04-12T12:55:33.309Z,22.00
2023-04-12T13:00:30.169Z,21.80
2023-04-12T13:02:58.625Z,21.90
2023-04-12T13:05:25.768Z,21.80
2023-04-12T13:07:52.673Z,21.60
2023-04-12T13:10:19.615Z,21.40
2023-04-12T13:12:46.564Z,21.30
2023-04-12T13:15:22.010Z,21.20
2023-04-12T13:17:53.063Z,21.00
2023-04-12T13:20:20.500Z,20.80
2023-04-12T13:22:47.393Z,20.80
2023-04-12T13:25:14.411Z,20.70
2023-04-12T13:27:41.301Z,20.60
2023-04-12T13:30:08.857Z,20.50
2023-04-12T13:32:36.063Z,20.40
2023-04-12T13:35:04.552Z,20.10
2023-04-12T13:37:31.615Z,20.10
2023-04-12T13:39:58.572Z,20.00
2023-04-12T13:42:25.846Z,20.10
2023-04-12T13:44:52.958Z,20.20
2023-04-12T13:47:20.069Z,20.50
2023-04-12T13:49:47.063Z,20.70
2023-04-12T13:52:14.362Z,20.90
2023-04-12T13:54:43.421Z,21.20
2023-04-12T13:57:10.533Z,21.40
2023-04-12T13:59:37.715Z,21.60
2023-04-12T14:02:04.752Z,21.80
2023-04-12T14:04:32.212Z,21.80
2023-04-12T14:06:59.912Z,21.70
2023-04-12T14:09:32.288Z,21.60
2023-04-12T14:12:01.690Z,21.70
2023-04-12T14:14:28.726Z,21.80
2023-04-12T14:17:01.856Z,21.80
2023-04-12T14:19:29.609Z,21.80
2023-04-12T14:21:56.893Z,21.70
2023-04-12T14:24:23.851Z,21.70
2023-04-12T14:26:50.852Z,21.60
2023-04-12T14:29:17.813Z,21.60
2023-04-12T14:31:44.979Z,21.60
2023-04-12T14:34:13.395Z,21.70
2023-04-12T14:36:40.802Z,21.60
2023-04-12T14:39:10.774Z,21.70
2023-04-12T14:41:38.828Z,21.70
2023-04-12T14:44:06.113Z,21.80
2023-04-12T14:46:33.053Z,22.10
2023-04-12T14:49:01.296Z,22.30
2023-04-12T14:51:29.739Z,22.50
2023-04-12T14:53:57.522Z,22.60
2023-04-12T14:56:28.540Z,22.80
2023-04-12T14:58:57.480Z,22.90
2023-04-12T15:01:25.639Z,23.00
2023-04-12T15:03:53.717Z,23.20
2023-04-12T15:06:27.320Z,23.70
2023-04-12T15:08:55.131Z,24.30
2023-04-12T15:11:26.408Z,25.00
2023-04-12T15:13:53.865Z,25.50
2023-04-12T15:16:20.973Z,26.00
2023-04-12T15:18:50.547Z,26.40
2023-04-12T15:21:17.559Z,26.80
2023-04-12T15:23:44.932Z,27.30
2023-04-12T15:26:13.977Z,27.60
2023-04-12T15:28:41.028Z,27.30
2023-04-12T15:31:09.196Z,26.60
2023-04-12T15:33:37.334Z,25.80
2023-04-12T15:36:05.511Z,25.20
2023-04-12T15:38:34.748Z,24.70
2023-04-12T15:41:02.136Z,23.70
2023-04-12T15:43:29.342Z,23.10
2023-04-12T15:45:57.305Z,22.30
2023-04-12T15:48:25.768Z,21.90
2023-04-12T15:50:55.817Z,21.60
2023-04-12T15:53:27.505Z,21.40
2023-04-12T15:55:57.734Z,21.40
2023-04-12T15:58:26.932Z,21.60
2023-04-12T16:00:54.497Z,22.10
2023-04-12T16:03:26.438Z,22.70
2023-04-12T16:05:54.424Z,23.30
2023-04-12T16:08:22.182Z,23.90
2023-04-12T16:10:50.234Z,24.50
2023-04-12T16:13:17.322Z,24.90
2023-04-12T16:15:44.569Z,25.10
2023-04-12T16:18:11.947Z,25.30
2023-04-12T16:20:40.928Z,25.50
2023-04-12T16:23:08.247Z,25.20
2023-04-12T16:25:35.905Z,25.00
2023-04-12T16:28:03.408Z,24.70
2023-04-12T16:30:32.470Z,24.20
2023-04-12T16:32:59.812Z,23.70
2023-04-12T16:35:27.152Z,22.80
2023-04-12T16:37:54.910Z,22.00
2023-04-12T16:40:22.291Z,21.10
2023-04-12T16:42:49.366Z,20.10
2023-04-12T16:45:16.336Z,19.40
2023-04-12T16:47:47.015Z,18.80
2023-04-12T16:50:14.204Z,18.10
2023-04-12T16:52:41.841Z,17.50
2023-04-12T16:55:13.095Z,17.20
2023-04-12T16:57:42.010Z,14.50
2023-04-12T17:00:29.066Z,18.90
2023-04-12T17:02:56.536Z,16.20
2023-04-12T17:05:24.671Z,15.90
2023-04-12T17:07:54.257Z,15.70
2023-04-12T17:10:24.273Z,15.50
2023-04-12T17:12:55.293Z,16.00
2023-04-12T17:15:22.933Z,15.20
2023-04-12T17:17:52.915Z,15.10
2023-04-12T17:20:23.652Z,15.10
2023-04-12T17:22:51.181Z,15.00
2023-04-12T17:25:21.070Z,15.00
2023-04-12T17:27:49.293Z,15.00
2023-04-12T17:30:17.693Z,15.30
2023-04-12T17:32:49.321Z,14.80
2023-04-12T17:35:17.488Z,14.60
2023-04-12T17:37:44.971Z,14.60
2023-04-12T17:40:12.409Z,14.70
2023-04-12T17:42:41.791Z,14.70
2023-04-12T17:45:12.518Z,14.70
2023-04-12T17:47:43.885Z,14.70
2023-04-12T17:50:12.081Z,14.60
2023-04-12T17:52:39.443Z,14.50
2023-04-12T17:55:09.343Z,14.50
2023-04-12T17:57:36.485Z,14.40
2023-04-12T18:00:14.184Z,14.30
2023-04-12T18:02:43.700Z,14.20
2023-04-12T18:05:11.281Z,16.80
2023-04-12T18:07:39.823Z,14.10
2023-04-12T18:10:11.166Z,14.80
2023-04-12T18:12:38.661Z,14.10
2023-04-12T18:15:08.348Z,14.20
2023-04-12T18:17:35.451Z,14.10
2023-04-12T18:20:03.145Z,14.00
2023-04-12T18:22:30.368Z,14.10
2023-04-12T18:24:57.350Z,14.20
2023-04-12T18:27:24.208Z,14.20
2023-04-12T18:29:51.137Z,13.70
2023-04-12T18:32:18.212Z,14.20
2023-04-12T18:34:45.110Z,13.60
2023-04-12T18:37:12.552Z,15.50
2023-04-12T18:39:39.600Z,14.70
2023-04-12T18:42:06.576Z,13.30
2023-04-12T18:44:34.318Z,13.10
2023-04-12T18:47:01.359Z,13.00
2023-04-12T18:49:28.443Z,13.30
2023-04-12T18:51:58.647Z,12.70
2023-04-12T18:54:27.641Z,12.60
2023-04-12T18:56:54.973Z,12.50
2023-04-12T18:59:22.348Z,12.50
2023-04-12T19:01:49.420Z,12.90
2023-04-12T19:04:16.714Z,13.30
2023-04-12T19:06:45.261Z,12.90
2023-04-12T19:09:12.414Z,12.60
2023-04-12T19:11:39.656Z,12.20
2023-04-12T19:14:07.611Z,12.10
2023-04-12T19:16:35.543Z,12.30
2023-04-12T19:19:02.700Z,11.80
2023-04-12T19:21:29.758Z,12.70
2023-04-12T19:24:00.234Z,12.80
2023-04-12T19:26:28.893Z,12.80
2023-04-12T19:28:58.237Z,11.40
2023-04-12T19:31:25.770Z,11.30
2023-04-12T19:33:54.768Z,12.50
2023-04-12T19:36:24.313Z,12.00
2023-04-12T19:38:51.308Z,11.70
2023-04-12T19:41:19.761Z,11.00
2023-04-12T19:43:47.538Z,10.90
2023-04-12T19:46:15.200Z,12.30
2023-04-12T19:48:42.748Z,12.50
2023-04-12T19:51:09.866Z,12.70
2023-04-12T19:53:37.241Z,10.80
2023-04-12T19:56:04.518Z,12.40
2023-04-12T19:58:32.076Z,10.60
2023-04-12T20:01:02.811Z,10.60
2023-04-12T20:03:30.591Z,11.40
2023-04-12T20:06:03.925Z,10.80
2023-04-12T20:08:31.148Z,11.80
2023-04-12T20:10:58.389Z,11.30
2023-04-12T20:13:25.335Z,11.70
2023-04-12T20:15:52.604Z,12.10
2023-04-12T20:18:19.560Z,12.40
2023-04-12T20:20:48.485Z,10.30
2023-04-12T20:23:16.073Z,12.30
2023-04-12T20:25:42.995Z,10.10
2023-04-12T20:28:10.075Z,12.20
2023-04-12T20:30:37.129Z,10.10
2023-04-12T20:33:04.536Z,11.20
2023-04-12T20:35:31.997Z,10.70
2023-04-12T20:37:59.956Z,11.60
2023-04-12T20:40:29.622Z,11.60
2023-04-12T20:42:57.113Z,9.80
2023-04-12T20:45:24.273Z,9.80
2023-04-12T20:47:51.409Z,12.40
2023-04-12T20:50:22.276Z,12.00
2023-04-12T20:52:51.846Z,9.60
2023-04-12T20:55:19.010Z,9.60
2023-04-12T20:57:46.010Z,11.80
2023-04-12T21:00:23.760Z,10.80
2023-04-12T21:02:50.939Z,9.40
2023-04-12T21:05:18.002Z,9.30
2023-04-12T21:07:46.815Z,11.00
2023-04-12T21:10:14.923Z,9.70
2023-04-12T21:12:44.847Z,8.40
2023-04-12T21:15:12.496Z,9.20
2023-04-12T21:17:40.430Z,9.10
2023-04-12T21:20:14.604Z,11.20
2023-04-12T21:22:43.690Z,9.10
2023-04-12T21:25:16.563Z,9.50
2023-04-12T21:27:47.682Z,12.10
2023-04-12T21:30:15.639Z,11.50
2023-04-12T21:32:43.987Z,9.00
2023-04-12T21:35:11.605Z,11.00
2023-04-12T21:37:39.477Z,9.50
2023-04-12T21:40:09.624Z,10.90
2023-04-12T21:42:37.336Z,8.90
2023-04-12T21:45:05.465Z,10.10
2023-04-12T21:47:32.521Z,8.80
2023-04-12T21:49:59.598Z,8.70
2023-04-12T21:52:26.781Z,8.60
2023-04-12T21:54:54.785Z,8.60
2023-04-12T21:57:21.904Z,8.60
2023-04-12T21:59:48.808Z,8.50
2023-04-12T22:02:16.133Z,10.30
2023-04-12T22:04:43.910Z,11.10
2023-04-12T22:07:12.920Z,8.50
2023-04-12T22:09:41.377Z,8.50
2023-04-12T22:12:11.967Z,8.50
2023-04-12T22:14:46.556Z,8.50
2023-04-12T22:17:14.908Z,8.90
2023-04-12T22:19:42.218Z,9.10
2023-04-12T22:22:10.768Z,8.50
2023-04-12T22:24:38.780Z,10.60
2023-04-12T22:27:06.949Z,10.90
2023-04-12T22:29:35.166Z,11.20
2023-04-12T22:32:02.476Z,9.70
2023-04-12T22:34:29.474Z,9.90
2023-04-12T22:36:58.976Z,11.30
2023-04-12T22:39:26.646Z,10.30
2023-04-12T22:41:53.591Z,9.10
2023-04-12T22:44:22.050Z,10.40
2023-04-12T22:46:49.905Z,10.10
2023-04-12T22:49:18.442Z,8.40
2023-04-12T22:51:45.446Z,8.40
2023-04-12T22:54:12.440Z,8.40
2023-04-12T22:56:41.845Z,9.90
2023-04-12T22:59:09.216Z,8.40
2023-04-12T23:01:36.224Z,10.50
2023-04-12T23:04:03.536Z,8.50
2023-04-12T23:06:31.791Z,11.00
2023-04-12T23:09:00.041Z,8.60
2023-04-12T23:11:30.145Z,11.20
2023-04-12T23:13:58.098Z,8.60
2023-04-12T23:16:25.646Z,8.60
2023-04-12T23:18:52.654Z,8.60
2023-04-12T23:21:19.506Z,8.70
2023-04-12T23:23:46.924Z,11.50
2023-04-12T23:26:13.795Z,8.60
2023-04-12T23:28:40.823Z,8.60
2023-04-12T23:31:08.275Z,8.60
2023-04-12T23:33:35.292Z,10.20
2023-04-12T23:36:03.322Z,8.60
2023-04-12T23:38:33.882Z,9.80
2023-04-12T23:41:03.813Z,8.60
2023-04-12T23:43:32.650Z,8.70
2023-04-12T23:45:59.963Z,8.60
2023-04-12T23:48:27.267Z,8.60
2023-04-12T23:50:54.345Z,10.30
2023-04-12T23:53:21.728Z,9.70
2023-04-12T23:55:52.141Z,8.60
2023-04-12T23:58:19.869Z,9.10
